Gunter AFS, Alabama
Current Conditions -  °F | °C
As of 9:58 AM on Wednesday 22 Oct 2014 (Local Time) from KMXF Reporting Station
Clear Clear  
Wind Chill: 62°   Ceiling: Unl
Heat Index: 62°   Visibility: 10mi
Dew Point: 44°   Wind: 10mph
Humidity: 52%   Direction: 20°NNE
Pressure: 30.14"   Gusts: NA
Location:  32.4072°N, 86.2486°W
Report Text: KMXF 221458Z AUTO 02009KT 10SM CLR 16/06 A3014 RMK AO2 SLP209 T01640064 52016
Loading
Personal Weather Stations






























Interactive Weather Map
Tropical Storm Tracking
New forecast layout! Learn more

10-Day Weather Forecast

Advertisements
Track Severe Weather on mobile